Time;durP1;ratioP1;P1;durP2;ratioP2;P2;SDS_P1;SDS_P2;PMS_P1;PMS_P2;Temp;Humidity;BMP_temperature;BMP_pressure;BME280_temperature;BME280_humidity;BME280_pressure;Samples;Min_cycle;Max_cycle;Signal;HPM_P1;HPM_P2
2024/04/19 00:01:39;;;;;;;33.55;31.75;;;;;;;-143.39;100.00;64013.03;5346109;26;20024;-76
2024/04/19 00:04:10;;;;;;;32.20;30.60;;;;;;;-143.39;100.00;64013.03;5348526;26;20001;-76
2024/04/19 00:06:37;;;;;;;35.35;33.55;;;;;;;-143.39;100.00;64013.03;5337773;26;20001;-76
2024/04/19 00:09:06;;;;;;;32.95;31.35;;;;;;;-143.39;100.00;64013.03;5314245;26;20437;-76
2024/04/19 00:11:32;;;;;;;31.88;30.23;;;;;;;-143.39;100.00;64013.03;5322152;26;20514;-76
2024/04/19 00:14:25;;;;;;;32.88;31.27;;;;;;;-143.39;100.00;64013.03;5348552;26;20001;-76
2024/04/19 00:16:52;;;;;;;31.45;29.85;;;;;;;-143.39;100.00;64013.03;5321830;26;20018;-76
2024/04/19 00:19:25;;;;;;;30.63;29.02;;;;;;;-143.39;100.00;64013.03;5347717;26;20046;-76
2024/04/19 00:21:51;;;;;;;31.00;29.40;;;;;;;-143.39;100.00;64013.03;5344830;26;20004;-76
2024/04/19 00:24:23;;;;;;;28.52;26.92;;;;;;;-143.39;100.00;64013.03;5347538;26;20057;-76
2024/04/19 00:26:51;;;;;;;29.10;27.60;;;;;;;-143.39;100.00;64013.03;5334645;26;20006;-76
2024/04/19 00:29:26;;;;;;;28.08;26.58;;;;;;;-143.39;100.00;64013.03;5313238;26;20010;-75
2024/04/19 00:31:55;;;;;;;28.92;27.33;;;;;;;-143.39;100.00;64013.03;5310573;26;20437;-76
2024/04/19 00:34:27;;;;;;;29.27;27.55;;;;;;;-143.39;100.00;64013.03;5313526;26;20889;-76
2024/04/19 00:36:56;;;;;;;29.27;27.77;;;;;;;-143.39;100.00;64013.03;5344967;26;20015;-76
2024/04/19 00:39:23;;;;;;;33.53;31.83;;;;;;;-143.39;100.00;64013.03;5344948;26;20005;-76
2024/04/19 00:41:52;;;;;;;32.03;30.42;;;;;;;-143.39;100.00;64013.03;5347561;26;20412;-76
2024/04/19 00:44:23;;;;;;;32.80;31.00;;;;;;;-143.39;100.00;64013.03;5345167;26;20838;-76
2024/04/19 00:46:52;;;;;;;33.30;31.60;;;;;;;-143.39;100.00;64013.03;5346656;26;20012;-76
2024/04/19 00:49:20;;;;;;;33.63;31.92;;;;;;;-143.39;100.00;64013.03;5339110;26;20090;-76
2024/04/19 00:51:51;;;;;;;33.05;31.25;;;;;;;-143.39;100.00;64013.03;5344195;26;20016;-76
2024/04/19 00:54:21;;;;;;;29.90;28.30;;;;;;;-143.39;100.00;64013.03;5347439;26;20019;-76
2024/04/19 00:56:51;;;;;;;35.50;33.60;;;;;;;-143.39;100.00;64013.03;5345500;26;20340;-80
2024/04/19 00:59:18;;;;;;;33.92;32.13;;;;;;;-143.39;100.00;64013.03;5311652;26;20331;-81
2024/04/19 01:01:51;;;;;;;31.05;29.25;;;;;;;-143.39;100.00;64013.03;5312324;26;20016;-76
2024/04/19 01:04:18;;;;;;;31.42;29.83;;;;;;;-143.39;100.00;64013.03;5310204;26;20005;-76
2024/04/19 01:06:46;;;;;;;33.03;31.33;;;;;;;-143.39;100.00;64013.03;5318654;26;20056;-80
2024/04/19 01:09:16;;;;;;;32.65;30.90;;;;;;;-143.39;100.00;64013.03;5343203;26;20005;-80
2024/04/19 01:11:45;;;;;;;31.42;29.80;;;;;;;-143.39;100.00;64013.03;5345817;26;20078;-80
2024/04/19 01:14:11;;;;;;;31.67;29.98;;;;;;;-143.39;100.00;64013.03;5339105;26;20012;-80
2024/04/19 01:16:49;;;;;;;32.42;30.40;;;;;;;-143.39;100.00;64013.03;5315604;26;20014;-80
2024/04/19 01:19:15;;;;;;;31.98;30.17;;;;;;;-143.39;100.00;64013.03;5343903;26;20472;-80
2024/04/19 01:21:44;;;;;;;33.97;31.98;;;;;;;-143.39;100.00;64013.03;5346200;26;20005;-76
2024/04/19 01:24:20;;;;;;;32.58;30.88;;;;;;;-143.39;100.00;64013.03;5344111;26;20001;-76
2024/04/19 01:27:02;;;;;;;37.00;35.20;;;;;;;-143.39;100.00;64013.03;5338710;26;20001;-76
2024/04/19 01:29:29;;;;;;;34.65;32.85;;;;;;;-143.39;100.00;64013.03;5309456;26;20001;-76
2024/04/19 01:32:05;;;;;;;31.83;30.13;;;;;;;-143.39;100.00;64013.03;5347838;26;20016;-76
2024/04/19 01:34:37;;;;;;;30.20;28.70;;;;;;;-143.39;100.00;64013.03;5347024;26;20001;-81
2024/04/19 01:37:13;;;;;;;31.25;29.65;;;;;;;-143.39;100.00;64013.03;5349691;26;20016;-76
2024/04/19 01:39:39;;;;;;;28.65;27.20;;;;;;;-143.39;100.00;64013.03;5347840;26;20001;-80
2024/04/19 01:42:11;;;;;;;31.48;29.60;;;;;;;-143.39;100.00;64013.03;5318107;26;20006;-80
2024/04/19 01:44:37;;;;;;;28.33;27.02;;;;;;;-143.39;100.00;64013.03;5312542;26;20016;-81
2024/04/19 01:47:06;;;;;;;30.60;29.10;;;;;;;-143.39;100.00;64013.03;5347198;26;20004;-80
2024/04/19 01:49:32;;;;;;;29.45;27.98;;;;;;;-143.39;100.00;64013.03;5341552;26;20001;-75
2024/04/19 01:52:07;;;;;;;31.92;30.27;;;;;;;-143.39;100.00;64013.03;5331267;26;20005;-75
2024/04/19 01:54:33;;;;;;;36.78;34.88;;;;;;;-143.39;100.00;64013.03;5312412;26;20005;-80
2024/04/19 01:57:03;;;;;;;31.95;30.35;;;;;;;-143.39;100.00;64013.03;5346202;26;20009;-80
2024/04/19 01:59:32;;;;;;;30.58;28.92;;;;;;;-143.39;100.00;64013.03;5347131;26;19997;-80
2024/04/19 02:02:00;;;;;;;33.90;32.20;;;;;;;-143.39;100.00;64013.03;5334690;26;20017;-80
2024/04/19 02:04:27;;;;;;;36.22;34.42;;;;;;;-143.39;100.00;64013.03;5312335;26;20333;-81
2024/04/19 02:06:56;;;;;;;35.80;33.90;;;;;;;-143.39;100.00;64013.03;5333181;26;20013;-80
2024/04/19 02:09:22;;;;;;;37.17;35.28;;;;;;;-143.39;100.00;64013.03;5311919;27;20002;-81
2024/04/19 02:11:51;;;;;;;36.97;35.08;;;;;;;-143.39;100.00;64013.03;5318678;26;20016;-81
2024/04/19 02:14:19;;;;;;;34.65;32.95;;;;;;;-143.39;100.00;64013.03;5346719;26;20000;-81
2024/04/19 02:16:51;;;;;;;37.05;35.05;;;;;;;-143.39;100.00;64013.03;5323106;26;20020;-81
2024/04/19 02:19:17;;;;;;;37.15;35.15;;;;;;;-143.39;100.00;64013.03;5346602;26;20019;-81
2024/04/19 02:21:46;;;;;;;38.80;36.50;;;;;;;-143.39;100.00;64013.03;5349216;26;20004;-81
2024/04/19 02:24:12;;;;;;;41.47;39.28;;;;;;;-143.39;100.00;64013.03;5314706;26;20005;-81
2024/04/19 02:26:41;;;;;;;40.20;37.90;;;;;;;-143.39;100.00;64013.03;5317661;26;20001;-81
2024/04/19 02:31:57;;;;;;;45.80;43.30;;;;;;;-143.39;100.00;64013.03;5347758;26;20078;-81
2024/04/19 02:34:25;;;;;;;41.70;39.60;;;;;;;-143.39;100.00;64013.03;5345730;26;20005;-81
2024/04/19 02:36:54;;;;;;;36.38;34.67;;;;;;;-143.39;100.00;64013.03;5345711;26;20001;-81
2024/04/19 02:39:23;;;;;;;41.13;39.33;;;;;;;-143.39;100.00;64013.03;5324329;26;20056;-76
2024/04/19 02:41:52;;;;;;;46.47;44.17;;;;;;;-143.39;100.00;64013.03;5311851;27;20088;-81
2024/04/19 02:44:21;;;;;;;42.28;39.88;;;;;;;-143.39;100.00;64013.03;5328544;26;20004;-81
2024/04/19 02:46:50;;;;;;;44.72;42.42;;;;;;;-143.39;100.00;64013.03;5344887;26;20789;-81
2024/04/19 02:49:21;;;;;;;42.38;39.78;;;;;;;-143.39;100.00;64013.03;5338615;26;20005;-81
2024/04/19 02:51:50;;;;;;;43.33;40.92;;;;;;;-143.39;100.00;64013.03;5345022;26;20001;-81
2024/04/19 02:54:19;;;;;;;45.08;41.97;;;;;;;-143.39;100.00;64013.03;5345470;26;20040;-80
2024/04/19 02:56:48;;;;;;;36.65;34.42;;;;;;;-143.39;100.00;64013.03;5344468;26;20465;-81
2024/04/19 02:59:17;;;;;;;37.63;35.42;;;;;;;-143.39;100.00;64013.03;5339635;26;20714;-80
2024/04/19 03:01:47;;;;;;;36.20;34.10;;;;;;;-143.39;100.00;64013.03;5312025;27;20053;-81
2024/04/19 03:04:16;;;;;;;30.35;28.45;;;;;;;-143.39;100.00;64013.03;5312047;26;20812;-81
2024/04/19 03:06:48;;;;;;;30.48;28.40;;;;;;;-143.39;100.00;64013.03;5334473;26;20001;-81
2024/04/19 03:09:17;;;;;;;29.38;27.67;;;;;;;-143.39;100.00;64013.03;5345784;26;20009;-81
2024/04/19 03:11:46;;;;;;;27.80;26.00;;;;;;;-143.39;100.00;64013.03;5311749;26;20005;-81
2024/04/19 03:14:15;;;;;;;27.85;26.25;;;;;;;-143.39;100.00;64013.03;5311536;26;20016;-81
2024/04/19 03:16:44;;;;;;;28.27;26.58;;;;;;;-143.39;100.00;64013.03;5333186;26;20709;-81
2024/04/19 03:19:13;;;;;;;23.88;22.58;;;;;;;-143.39;100.00;64013.03;5345344;26;20001;-81
2024/04/19 03:21:42;;;;;;;23.10;21.80;;;;;;;-143.39;100.00;64013.03;5344998;26;20081;-81
2024/04/19 03:24:14;;;;;;;25.05;23.55;;;;;;;-143.39;100.00;64013.03;5322839;26;20469;-80
2024/04/19 03:26:43;;;;;;;25.13;23.63;;;;;;;-143.39;100.00;64013.03;5345008;26;20008;-80
2024/04/19 03:29:15;;;;;;;22.98;21.67;;;;;;;-143.39;100.00;64013.03;5345514;26;20025;-80
2024/04/19 03:31:44;;;;;;;23.02;21.80;;;;;;;-143.39;100.00;64013.03;5345275;26;20001;-80
2024/04/19 03:34:10;;;;;;;24.50;23.20;;;;;;;-143.39;100.00;64013.03;5344761;26;20086;-80
2024/04/19 03:36:39;;;;;;;24.33;23.02;;;;;;;-143.39;100.00;64013.03;5347036;26;20000;-80
2024/04/19 03:39:09;;;;;;;24.67;23.38;;;;;;;-143.39;100.00;64013.03;5344797;26;20441;-80
2024/04/19 03:41:42;;;;;;;24.42;23.13;;;;;;;-143.39;100.00;64013.03;5345159;26;20001;-80
2024/04/19 03:46:57;;;;;;;21.65;20.45;;;;;;;-143.39;100.00;64013.03;5347304;26;20032;-80
2024/04/19 03:49:25;;;;;;;22.88;21.58;;;;;;;-143.39;100.00;64013.03;5319322;26;20002;-80
2024/04/19 03:51:55;;;;;;;21.00;19.80;;;;;;;-143.39;100.00;64013.03;5310146;26;20005;-79
2024/04/19 03:54:24;;;;;;;19.05;18.02;;;;;;;-143.39;100.00;64013.03;5327499;26;20019;-80
2024/04/19 03:56:55;;;;;;;21.00;19.90;;;;;;;-143.39;100.00;64013.03;5344599;26;20005;-80
2024/04/19 03:59:24;;;;;;;19.20;18.20;;;;;;;-143.39;100.00;64013.03;5344985;26;20027;-80
2024/04/19 04:01:53;;;;;;;19.65;18.45;;;;;;;-143.39;100.00;64013.03;5345258;26;20005;-80
2024/04/19 04:04:22;;;;;;;22.30;20.70;;;;;;;-143.39;100.00;64013.03;5344641;26;20090;-80
2024/04/19 04:06:50;;;;;;;20.55;19.20;;;;;;;-143.39;100.00;64013.03;5344654;26;20363;-80
2024/04/19 04:09:19;;;;;;;20.95;19.75;;;;;;;-143.39;100.00;64013.03;5343912;26;20552;-80
2024/04/19 04:11:48;;;;;;;20.63;19.45;;;;;;;-143.39;100.00;64013.03;4976758;26;10001903;-80
2024/04/19 04:14:20;;;;;;;21.00;19.70;;;;;;;-143.39;100.00;64013.03;5333773;26;21270;-80
2024/04/19 04:16:49;;;;;;;20.30;19.20;;;;;;;-143.39;100.00;64013.03;5342338;26;20005;-78
2024/04/19 04:19:18;;;;;;;20.60;19.40;;;;;;;-143.39;100.00;64013.03;5342275;26;20340;-80
2024/04/19 04:21:47;;;;;;;19.95;18.85;;;;;;;-143.39;100.00;64013.03;5341978;26;20721;-79
2024/04/19 04:24:18;;;;;;;20.55;19.35;;;;;;;-143.39;100.00;64013.03;5341643;26;20445;-80
2024/04/19 04:26:47;;;;;;;20.47;19.27;;;;;;;-143.39;100.00;64013.03;5341965;26;20005;-80
2024/04/19 04:29:16;;;;;;;21.00;19.70;;;;;;;-143.39;100.00;64013.03;5343331;26;20432;-80
2024/04/19 04:31:52;;;;;;;22.63;21.25;;;;;;;-143.39;100.00;64013.03;5343529;26;20005;-80
2024/04/19 04:34:21;;;;;;;21.65;20.25;;;;;;;-143.39;100.00;64013.03;5344298;26;20001;-80
2024/04/19 04:36:59;;;;;;;21.65;20.35;;;;;;;-143.39;100.00;64013.03;5339206;26;20000;-80
2024/04/19 04:39:28;;;;;;;23.02;21.73;;;;;;;-143.39;100.00;64013.03;5344356;26;20482;-80
2024/04/19 04:41:57;;;;;;;23.00;21.80;;;;;;;-143.39;100.00;64013.03;5325999;26;20446;-79
2024/04/19 04:44:32;;;;;;;25.60;24.10;;;;;;;-143.39;100.00;64013.03;5325573;26;20005;-81
2024/04/19 04:47:05;;;;;;;26.25;24.65;;;;;;;-143.39;100.00;64013.03;5343588;26;20009;-79
2024/04/19 04:49:41;;;;;;;28.30;26.60;;;;;;;-143.39;100.00;64013.03;5339445;26;20082;-82
2024/04/19 04:52:10;;;;;;;32.10;30.00;;;;;;;-143.39;100.00;64013.03;5345690;26;20019;-77
2024/04/19 04:54:40;;;;;;;30.33;28.52;;;;;;;-143.39;100.00;64013.03;5345322;26;20001;-76
2024/04/19 04:57:24;;;;;;;29.00;27.30;;;;;;;-143.39;100.00;64013.03;5345531;26;20023;-76
2024/04/19 04:59:54;;;;;;;30.00;28.30;;;;;;;-143.39;100.00;64013.03;5345793;26;20000;-76
2024/04/19 05:02:25;;;;;;;31.65;29.75;;;;;;;-143.39;100.00;64013.03;5345030;26;20078;-76
2024/04/19 05:05:03;;;;;;;28.90;27.20;;;;;;;-143.39;100.00;64013.03;5346208;26;20001;-76
2024/04/19 05:07:37;;;;;;;28.02;26.42;;;;;;;-143.39;100.00;64013.03;5348726;26;20005;-76
2024/04/19 05:10:17;;;;;;;30.10;28.40;;;;;;;-143.39;100.00;64013.03;5332783;26;20004;-76
2024/04/19 05:12:46;;;;;;;30.60;28.80;;;;;;;-143.39;100.00;64013.03;5325463;26;20024;-76
2024/04/19 05:15:16;;;;;;;31.50;29.70;;;;;;;-143.39;100.00;64013.03;5322356;26;20513;-79
2024/04/19 05:17:50;;;;;;;29.10;27.50;;;;;;;-143.39;100.00;64013.03;5347414;26;20082;-76
2024/04/19 05:20:19;;;;;;;29.55;27.95;;;;;;;-143.39;100.00;64013.03;5348306;26;20065;-76
2024/04/19 05:22:45;;;;;;;28.83;27.33;;;;;;;-143.39;100.00;64013.03;5348172;26;20004;-76
2024/04/19 05:25:19;;;;;;;28.60;27.00;;;;;;;-143.39;100.00;64013.03;5346523;26;20001;-77
2024/04/19 05:27:53;;;;;;;27.55;25.95;;;;;;;-143.39;100.00;64013.03;5328582;26;20005;-76
2024/04/19 05:30:22;;;;;;;29.83;28.13;;;;;;;-143.39;100.00;64013.03;5346488;26;20041;-79
2024/04/19 05:32:59;;;;;;;28.92;27.33;;;;;;;-143.39;100.00;64013.03;5346438;26;20019;-78
2024/04/19 05:35:29;;;;;;;26.83;25.30;;;;;;;-143.39;100.00;64013.03;5346219;26;20001;-79
2024/04/19 05:37:59;;;;;;;29.40;27.80;;;;;;;-143.39;100.00;64013.03;5345594;26;20019;-79
2024/04/19 05:40:31;;;;;;;29.65;27.80;;;;;;;-143.39;100.00;64013.03;5345293;26;20451;-79
2024/04/19 05:43:00;;;;;;;28.33;26.75;;;;;;;-143.39;100.00;64013.03;5322554;26;20440;-79
2024/04/19 05:45:28;;;;;;;28.60;26.92;;;;;;;-143.39;100.00;64013.03;5345657;26;20081;-79
2024/04/19 05:48:00;;;;;;;31.10;29.10;;;;;;;-143.39;100.00;64013.03;5344950;26;20017;-79
2024/04/19 05:50:30;;;;;;;30.95;29.15;;;;;;;-143.39;100.00;64013.03;5338980;26;20015;-79
2024/04/19 05:52:59;;;;;;;32.75;30.75;;;;;;;-143.39;100.00;64013.03;5344488;26;20005;-79
2024/04/19 05:55:36;;;;;;;30.70;29.00;;;;;;;-143.39;100.00;64013.03;5331475;26;20015;-79
2024/04/19 05:58:05;;;;;;;30.45;28.73;;;;;;;-143.39;100.00;64013.03;5330799;26;20020;-79
2024/04/19 06:00:36;;;;;;;30.20;28.30;;;;;;;-143.39;100.00;64013.03;5345175;26;20001;-79
2024/04/19 06:03:15;;;;;;;30.27;28.58;;;;;;;-143.39;100.00;64013.03;5345251;26;20005;-79
2024/04/19 06:05:43;;;;;;;30.10;28.50;;;;;;;-143.39;100.00;64013.03;5345331;26;20000;-79
2024/04/19 06:08:12;;;;;;;30.65;28.95;;;;;;;-143.39;100.00;64013.03;5320646;26;20006;-76
2024/04/19 06:10:43;;;;;;;30.27;28.58;;;;;;;-143.39;100.00;64013.03;5312277;26;20021;-76
2024/04/19 06:13:23;;;;;;;28.05;26.45;;;;;;;-143.39;100.00;64013.03;5312299;26;20048;-76
2024/04/19 06:15:52;;;;;;;28.33;26.73;;;;;;;-143.39;100.00;64013.03;5321025;26;20530;-79
2024/04/19 06:18:23;;;;;;;28.30;26.70;;;;;;;-143.39;100.00;64013.03;5345437;26;20005;-79
2024/04/19 06:20:52;;;;;;;28.17;26.58;;;;;;;-143.39;100.00;64013.03;5346127;26;20841;-78
2024/04/19 06:23:21;;;;;;;28.10;26.40;;;;;;;-143.39;100.00;64013.03;5321432;26;20002;-79
2024/04/19 06:25:51;;;;;;;27.67;25.98;;;;;;;-143.39;100.00;64013.03;5325613;26;20559;-79
2024/04/19 06:28:20;;;;;;;29.25;27.50;;;;;;;-143.39;100.00;64013.03;5345157;26;20001;-79
2024/04/19 06:30:49;;;;;;;27.80;26.10;;;;;;;-143.39;100.00;64013.03;5345031;26;20074;-79
2024/04/19 06:33:27;;;;;;;25.75;24.33;;;;;;;-143.39;100.00;64013.03;5345710;26;20000;-79
2024/04/19 06:35:56;;;;;;;23.85;22.40;;;;;;;-143.39;100.00;64013.03;5345231;26;19997;-79
2024/04/19 06:38:24;;;;;;;26.02;24.42;;;;;;;-143.39;100.00;64013.03;5346930;26;20004;-76
2024/04/19 06:41:07;;;;;;;26.20;24.42;;;;;;;-143.39;100.00;64013.03;5314689;26;20341;-76
2024/04/19 06:43:36;;;;;;;25.50;24.00;;;;;;;-143.39;100.00;64013.03;5316881;26;20004;-79
2024/04/19 06:46:06;;;;;;;24.50;23.10;;;;;;;-143.39;100.00;64013.03;5332095;26;20005;-79
2024/04/19 06:48:46;;;;;;;25.90;24.30;;;;;;;-143.39;100.00;64013.03;5346052;26;20005;-76
2024/04/19 06:51:16;;;;;;;26.52;24.63;;;;;;;-143.39;100.00;64013.03;5343269;26;20008;-76
2024/04/19 06:53:46;;;;;;;25.95;24.42;;;;;;;-143.39;100.00;64013.03;5331459;26;20002;-76
2024/04/19 06:56:25;;;;;;;26.50;24.95;;;;;;;-143.39;100.00;64013.03;5339760;26;20019;-76
2024/04/19 06:58:56;;;;;;;27.33;25.73;;;;;;;-143.39;100.00;64013.03;5339442;26;20005;-76
2024/04/19 07:01:26;;;;;;;27.15;25.45;;;;;;;-143.39;100.00;64013.03;5346747;26;20001;-76
2024/04/19 07:04:05;;;;;;;28.63;26.83;;;;;;;-143.39;100.00;64013.03;5346848;26;20004;-76
2024/04/19 07:06:43;;;;;;;27.90;26.20;;;;;;;-143.39;100.00;64013.03;5342719;26;20040;-76
2024/04/19 07:09:13;;;;;;;29.60;27.80;;;;;;;-143.39;100.00;64013.03;5328290;26;20016;-79
2024/04/19 07:11:42;;;;;;;28.75;27.02;;;;;;;-143.39;100.00;64013.03;5338698;26;20832;-79
2024/04/19 07:14:11;;;;;;;29.17;27.38;;;;;;;-143.39;100.00;64013.03;5342745;26;20766;-78
2024/04/19 07:16:40;;;;;;;28.60;26.80;;;;;;;-143.39;100.00;64013.03;5339716;26;20025;-79
2024/04/19 07:19:12;;;;;;;27.90;26.10;;;;;;;-143.39;100.00;64013.03;5344617;26;19997;-79
2024/04/19 07:21:44;;;;;;;28.13;26.52;;;;;;;-143.39;100.00;64013.03;5310196;26;20331;-79
2024/04/19 07:24:13;;;;;;;26.42;24.92;;;;;;;-143.39;100.00;64013.03;5340089;26;20016;-79
2024/04/19 07:26:44;;;;;;;28.30;26.63;;;;;;;-143.39;100.00;64013.03;5321206;26;20078;-79
2024/04/19 07:29:28;;;;;;;33.70;31.65;;;;;;;-143.39;100.00;64013.03;5320832;26;20001;-76
2024/04/19 07:32:12;;;;;;;29.73;28.13;;;;;;;-143.39;100.00;64013.03;5346119;26;20019;-76
2024/04/19 07:34:43;;;;;;;28.80;27.30;;;;;;;-143.39;100.00;64013.03;5346516;26;19997;-76
2024/04/19 07:37:21;;;;;;;30.27;28.57;;;;;;;-143.39;100.00;64013.03;5346378;26;20011;-76
2024/04/19 07:39:50;;;;;;;30.98;29.17;;;;;;;-143.39;100.00;64013.03;5329562;26;20013;-76
2024/04/19 07:42:34;;;;;;;29.63;27.92;;;;;;;-143.39;100.00;64013.03;5339661;26;20015;-76
2024/04/19 07:45:07;;;;;;;28.25;26.65;;;;;;;-143.39;100.00;64013.03;5346827;26;20001;-76
2024/04/19 07:47:37;;;;;;;29.30;27.50;;;;;;;-143.39;100.00;64013.03;5346062;26;20093;-76
2024/04/19 07:50:22;;;;;;;29.60;27.90;;;;;;;-143.39;100.00;64013.03;5343890;26;20001;-76
2024/04/19 07:52:59;;;;;;;32.35;30.52;;;;;;;-143.39;100.00;64013.03;5346164;26;20001;-79
2024/04/19 07:55:28;;;;;;;30.67;28.98;;;;;;;-143.39;100.00;64013.03;5340598;26;20001;-79
2024/04/19 07:57:57;;;;;;;30.90;29.10;;;;;;;-143.39;100.00;64013.03;5340410;26;20000;-79
2024/04/19 08:00:25;;;;;;;32.10;30.20;;;;;;;-143.39;100.00;64013.03;5344078;26;20005;-79
2024/04/19 08:02:54;;;;;;;33.10;31.20;;;;;;;-143.39;100.00;64013.03;5344249;26;20005;-78
2024/04/19 08:05:26;;;;;;;29.13;27.42;;;;;;;-143.39;100.00;64013.03;5343838;26;20004;-79
2024/04/19 08:08:01;;;;;;;32.60;30.70;;;;;;;-143.39;100.00;64013.03;5326984;26;20005;-79
2024/04/19 08:10:30;;;;;;;32.38;30.48;;;;;;;-143.39;100.00;64013.03;5310038;26;20466;-79
2024/04/19 08:13:00;;;;;;;33.53;31.42;;;;;;;-143.39;100.00;64013.03;5324601;26;20015;-79
2024/04/19 08:15:30;;;;;;;34.13;31.77;;;;;;;-143.39;100.00;64013.03;5343746;26;20106;-79
2024/04/19 08:18:01;;;;;;;35.22;32.83;;;;;;;-143.39;100.00;64013.03;5343713;26;20033;-79
2024/04/19 08:20:33;;;;;;;32.38;30.17;;;;;;;-143.39;100.00;64013.03;5344395;26;20048;-79
2024/04/19 08:23:02;;;;;;;35.10;32.70;;;;;;;-143.39;100.00;64013.03;5344773;26;20752;-79
2024/04/19 08:25:31;;;;;;;34.70;32.47;;;;;;;-143.39;100.00;64013.03;5344359;26;20005;-78
2024/04/19 08:28:01;;;;;;;32.85;30.73;;;;;;;-143.39;100.00;64013.03;5344684;26;20013;-79
2024/04/19 08:30:32;;;;;;;31.33;29.33;;;;;;;-143.39;100.00;64013.03;5343674;26;20435;-79
2024/04/19 08:33:00;;;;;;;31.23;29.33;;;;;;;-143.39;100.00;64013.03;5341499;26;20001;-79
2024/04/19 08:35:35;;;;;;;30.30;28.50;;;;;;;-143.39;100.00;64013.03;5334432;26;20030;-79
2024/04/19 08:38:05;;;;;;;32.70;30.63;;;;;;;-143.39;100.00;64013.03;5334507;26;20016;-79
2024/04/19 08:40:35;;;;;;;33.45;31.35;;;;;;;-143.39;100.00;64013.03;5309705;27;20002;-76
2024/04/19 08:43:04;;;;;;;32.35;30.25;;;;;;;-143.39;100.00;64013.03;5309732;27;20006;-79
2024/04/19 08:45:42;;;;;;;29.90;28.00;;;;;;;-143.39;100.00;64013.03;5339210;26;20095;-78
2024/04/19 08:48:11;;;;;;;32.38;30.17;;;;;;;-143.39;100.00;64013.03;5343419;26;20360;-79
2024/04/19 08:50:42;;;;;;;32.30;30.20;;;;;;;-143.39;100.00;64013.03;5336251;26;20004;-79
2024/04/19 08:53:21;;;;;;;33.13;31.03;;;;;;;-143.39;100.00;64013.03;5344646;26;20000;-77
2024/04/19 08:55:51;;;;;;;33.38;31.35;;;;;;;-143.39;100.00;64013.03;5344225;26;20016;-79
2024/04/19 08:58:20;;;;;;;33.30;31.20;;;;;;;-143.39;100.00;64013.03;5343788;26;20005;-79
2024/04/19 09:00:54;;;;;;;35.25;33.05;;;;;;;-143.39;100.00;64013.03;5331644;26;20005;-79
2024/04/19 09:03:23;;;;;;;36.67;34.38;;;;;;;-143.39;100.00;64013.03;5339176;26;20001;-79
2024/04/19 09:05:55;;;;;;;36.60;34.40;;;;;;;-143.39;100.00;64013.03;5316051;26;20006;-79
2024/04/19 09:08:25;;;;;;;34.65;32.35;;;;;;;-143.39;100.00;64013.03;5308575;26;20021;-79
2024/04/19 09:10:54;;;;;;;35.38;32.97;;;;;;;-143.39;100.00;64013.03;5331546;26;19997;-80
2024/04/19 09:13:23;;;;;;;35.05;32.55;;;;;;;-143.39;100.00;64013.03;5341789;26;20002;-76
2024/04/19 09:15:58;;;;;;;36.30;33.80;;;;;;;-143.39;100.00;64013.03;5326629;26;20331;-76
2024/04/19 09:18:42;;;;;;;34.15;31.85;;;;;;;-143.39;100.00;64013.03;5311184;26;20017;-76
2024/04/19 09:22:09;;;;;;;34.00;31.70;;;;;;;-143.39;100.00;64013.03;5452215;21;20027;-94
2024/04/19 09:25:30;;;;;;;37.83;35.22;;;;;;;-143.39;100.00;64013.03;5237428;27;20011;-94
2024/04/19 09:31:27;;;;;;;38.60;36.00;;;;;;;-143.39;100.00;64013.03;5141412;27;20516;-94
2024/04/19 09:34:35;;;;;;;35.20;32.80;;;;;;;-143.39;100.00;64013.03;5336126;26;20079;-94
2024/04/19 09:37:39;;;;;;;35.60;33.10;;;;;;;-143.39;100.00;64013.03;5309413;26;20006;-93
2024/04/19 09:41:03;;;;;;;34.95;32.55;;;;;;;-143.39;100.00;64013.03;5306924;26;20443;-93
2024/04/19 09:43:58;;;;;;;34.08;31.77;;;;;;;-143.39;100.00;64013.03;5309058;27;20005;-94
2024/04/19 09:46:56;;;;;;;34.95;32.45;;;;;;;-143.39;100.00;64013.03;5309906;26;20010;-94
2024/04/19 09:50:12;;;;;;;38.45;35.75;;;;;;;-143.39;100.00;64013.03;5310040;27;20104;-94
2024/04/19 09:59:59;;;;;;;39.67;36.67;;;;;;;-143.39;100.00;64013.03;5315812;27;20323;-93
2024/04/19 10:10:06;;;;;;;39.80;37.30;;;;;;;-143.39;100.00;64013.03;5296667;26;20006;-93
2024/04/19 10:22:52;;;;;;;43.10;40.30;;;;;;;-143.39;100.00;64013.03;5331228;26;19997;-93
2024/04/19 10:26:06;;;;;;;41.03;38.53;;;;;;;-143.39;100.00;64013.03;5351917;26;20017;-95
2024/04/19 10:29:33;;;;;;;40.13;37.58;;;;;;;-143.39;100.00;64013.03;5351254;26;20001;-93
2024/04/19 10:32:33;;;;;;;35.80;33.50;;;;;;;-143.39;100.00;64013.03;5347995;26;20023;-93
2024/04/19 10:39:00;;;;;;;;;;;;;;;;;;;;;
2024/04/19 10:42:31;;;;;;;;;;;;;;;;;;;;;
2024/04/19 10:51:27;;;;;;;31.88;29.75;;;;;;;-143.39;100.00;64013.03;5173898;27;20007;-94
2024/04/19 11:10:07;;;;;;;34.15;31.85;;;;;;;-143.39;100.00;64013.03;5345288;26;20017;-93
2024/04/19 11:13:12;;;;;;;31.67;29.58;;;;;;;-143.39;100.00;64013.03;5332541;26;20008;-93
2024/04/19 11:15:51;;;;;;;34.13;31.63;;;;;;;-143.39;100.00;64013.03;5346987;26;20016;-94
2024/04/19 11:18:45;;;;;;;39.30;36.95;;;;;;;-143.39;100.00;64013.03;5346776;26;20334;-92
2024/04/19 11:21:41;;;;;;;40.42;37.65;;;;;;;-143.39;100.00;64013.03;5331935;26;20016;-93
2024/04/19 11:24:34;;;;;;;36.72;34.10;;;;;;;-143.39;100.00;64013.03;5347456;26;20533;-93
2024/04/19 11:27:30;;;;;;;33.30;30.80;;;;;;;-143.39;100.00;64013.03;5365634;26;20325;-93
2024/04/19 11:33:37;;;;;;;;;;;;;;;;;;;;;
2024/04/19 11:36:47;;;;;;;61.78;58.05;;;;;;;-143.39;100.00;64013.03;5348064;26;20032;-94
2024/04/19 11:39:50;;;;;;;64.45;60.45;;;;;;;-143.39;100.00;64013.03;5310932;26;20335;-93
2024/04/19 11:42:56;;;;;;;46.30;43.30;;;;;;;-143.39;100.00;64013.03;5337140;26;20001;-94
2024/04/19 11:45:47;;;;;;;52.80;49.42;;;;;;;-143.39;100.00;64013.03;5358532;26;20023;-94
2024/04/19 11:48:31;;;;;;;40.15;37.35;;;;;;;-143.39;100.00;64013.03;5347202;26;20012;-93
2024/04/19 11:51:22;;;;;;;38.90;36.00;;;;;;;-143.39;100.00;64013.03;5342000;26;20462;-93
2024/04/19 11:54:03;;;;;;;37.75;35.25;;;;;;;-143.39;100.00;64013.03;5313045;26;20006;-92
2024/04/19 11:56:38;;;;;;;36.78;34.28;;;;;;;-143.39;100.00;64013.03;5337776;26;20086;-93
2024/04/19 11:59:31;;;;;;;36.83;34.33;;;;;;;-143.39;100.00;64013.03;5346794;26;20000;-93
2024/04/19 12:02:25;;;;;;;40.83;38.13;;;;;;;-143.39;100.00;64013.03;5346363;26;20070;-94
2024/04/19 12:04:59;;;;;;;38.85;36.35;;;;;;;-143.39;100.00;64013.03;5346978;26;20016;-94
2024/04/19 12:08:11;;;;;;;35.55;33.25;;;;;;;-143.39;100.00;64013.03;5338598;26;20346;-93
2024/04/19 12:10:52;;;;;;;40.10;37.40;;;;;;;-143.39;100.00;64013.03;5312363;26;20009;-93
2024/04/19 12:16:11;;;;;;;36.90;34.40;;;;;;;-143.39;100.00;64013.03;5341292;26;20001;-93
2024/04/19 12:18:41;;;;;;;36.92;34.42;;;;;;;-143.39;100.00;64013.03;5328503;26;20045;-94
2024/04/19 12:24:26;;;;;;;37.45;34.92;;;;;;;-143.39;100.00;64013.03;5334742;26;20004;-94
2024/04/19 12:30:21;;;;;;;43.72;40.88;;;;;;;-143.39;100.00;64013.03;5344018;26;20490;-93
2024/04/19 12:36:33;;;;;;;38.92;36.03;;;;;;;-143.39;100.00;64013.03;5337156;26;20015;-93
2024/04/19 12:39:23;;;;;;;;;;;;;;;;;;;;;
2024/04/19 12:45:02;;;;;;;38.22;35.53;;;;;;;-143.39;100.00;64013.03;5325342;26;20001;-94
2024/04/19 12:48:21;;;;;;;37.60;35.10;;;;;;;-143.39;100.00;64013.03;5345037;26;20016;-93
2024/04/19 12:54:25;;;;;;;37.47;34.85;;;;;;;-143.39;100.00;64013.03;5310617;26;20005;-93
2024/04/19 12:57:28;;;;;;;37.67;35.17;;;;;;;-143.39;100.00;64013.03;5312087;26;20411;-93